Aérodrome :
LOGIN :

S'inscrire | Disclaimer

   EN    FR    IT 

 










Légende :    VFR   VFR Marginal   IFR   IFR Intensif   IFR Très Intensif
Visi : 
Plafond : 
>= 8 km
>= 3000ft
5 à 8 km
1000 à 3000 ft
1500m à 5 km
500 à 1000 ft
800 à 1500m
200 à 500 ft
< 800m
< 200 ft
Symboles :   Orages  Brouillard  Fortes neiges  Fortes précipitations  Vent > 20 kt
SIGMETs :   Divers  Orages  Givrage  Turbulence  Onde Orograph.  Cendres Volcan.






- Altitude de l'aérodrome : 503 ft
- Code IATA : BLE


ESSD - Borlange

DERNIER METAR :
  • 031920Z AUTO 27006KT 9999 NCD M01/M12 Q1002

METARs EXPIRÉS :
  • 031850Z AUTO 29007KT 9999 NCD M00/M13 Q1001
  • 031820Z AUTO 29007KT 9999 NCD 00/M13 Q1001
  • 031750Z AUTO 30010KT 9999 NCD 02/M13 Q1000
  • 031720Z AUTO 31010KT 9999 NCD 03/M14 Q0999
  • 031650Z AUTO 32016KT 9999 NCD 03/M14 Q0999

Prévision TAF périmée.



MET'MAP, la Météo Aéronautique d'un coup d'oeil ! - Copyright ORBIFLY Décembre 2007 - Disclaimer

ORBIFLY MET'MAP TEAM :

Programmation & Développement : Alexandra Zaïnal
Sur une idée originale de : Baudouin d'Aumeries
Assistance à la programmation : Marc-Olivier Méhu
Soutien technique & logistique : Manuel Goepfert

Contact : metmap@orbifly.com




SOURCES & CREDITS :

   NOAA